Time;durP1;ratioP1;P1;durP2;ratioP2;P2;SDS_P1;SDS_P2;PMS_P1;PMS_P2;Temp;Humidity;BMP_temperature;BMP_pressure;BME280_temperature;BME280_humidity;BME280_pressure;Samples;Min_cycle;Max_cycle;Signal;HPM_P1;HPM_P2
2021/06/22 00:02:17;;;;;;;4.90;3.00;;;19.50;1.00;;;;;;5000239;28;20322;-77
2021/06/22 00:04:43;;;;;;;5.53;3.33;;;19.40;1.00;;;;;;5000938;28;20053;-77
2021/06/22 00:07:08;;;;;;;3.78;3.00;;;19.40;1.00;;;;;;5003749;28;20033;-76
2021/06/22 00:09:34;;;;;;;4.05;3.30;;;19.40;1.00;;;;;;5012876;28;20037;-75
2021/06/22 00:11:59;;;;;;;4.35;3.30;;;19.30;1.00;;;;;;5001360;28;20032;-78
2021/06/22 00:14:25;;;;;;;4.38;3.50;;;19.30;1.00;;;;;;5004491;28;20064;-75
2021/06/22 00:16:51;;;;;;;4.55;3.35;;;19.20;1.00;;;;;;4998234;28;20073;-75
2021/06/22 00:19:16;;;;;;;4.78;3.50;;;19.20;1.00;;;;;;5011667;28;20392;-76
2021/06/22 00:21:42;;;;;;;3.85;3.45;;;19.20;1.00;;;;;;4996259;28;20384;-76
2021/06/22 00:24:08;;;;;;;4.10;3.33;;;19.30;1.00;;;;;;5004969;28;20021;-76
2021/06/22 00:26:34;;;;;;;4.32;2.40;;;19.40;1.00;;;;;;4998850;28;20034;-76
2021/06/22 00:29:00;;;;;;;3.85;2.97;;;19.30;1.00;;;;;;5001551;28;20101;-75
2021/06/22 00:31:25;;;;;;;5.28;2.97;;;19.30;1.00;;;;;;5002561;28;20113;-77
2021/06/22 00:33:51;;;;;;;5.65;2.97;;;19.20;1.00;;;;;;5010217;28;20447;-75
2021/06/22 00:36:16;;;;;;;5.55;2.97;;;19.10;1.00;;;;;;4999416;28;20040;-76
2021/06/22 00:38:42;;;;;;;3.20;2.60;;;19.00;1.00;;;;;;5009629;28;20478;-75
2021/06/22 00:41:07;;;;;;;3.15;2.83;;;19.00;1.00;;;;;;5006608;28;20113;-76
2021/06/22 00:43:37;;;;;;;5.70;3.40;;;19.00;1.00;;;;;;5005474;28;20040;-76
2021/06/22 00:46:03;;;;;;;3.78;3.22;;;19.00;1.00;;;;;;5006872;28;20098;-75
2021/06/22 00:48:29;;;;;;;10.32;3.85;;;19.00;1.00;;;;;;4995364;28;20042;-77
2021/06/22 00:50:54;;;;;;;3.40;2.78;;;19.00;1.00;;;;;;4999249;28;20030;-76
2021/06/22 00:53:20;;;;;;;2.25;1.73;;;19.00;1.00;;;;;;5004975;28;20065;-76
2021/06/22 00:55:45;;;;;;;3.22;2.03;;;18.90;1.00;;;;;;4997130;28;20022;-76
2021/06/22 00:58:11;;;;;;;4.05;2.20;;;18.90;1.00;;;;;;4996182;28;20030;-80
2021/06/22 01:00:38;;;;;;;3.05;2.20;;;18.90;1.00;;;;;;4992346;28;20106;-78
2021/06/22 01:03:04;;;;;;;2.08;1.90;;;18.80;1.00;;;;;;5000568;28;20018;-76
2021/06/22 01:05:32;;;;;;;2.50;1.65;;;18.80;1.00;;;;;;4999354;28;20053;-76
2021/06/22 01:07:58;;;;;;;2.33;1.88;;;18.70;1.00;;;;;;5008963;28;20056;-76
2021/06/22 01:10:25;;;;;;;5.25;2.00;;;18.60;1.00;;;;;;4998319;28;20480;-76
2021/06/22 01:12:52;;;;;;;2.75;1.55;;;18.60;1.00;;;;;;4995473;28;20030;-76
2021/06/22 01:15:20;;;;;;;1.80;1.50;;;18.60;1.00;;;;;;5002784;28;20386;-75
2021/06/22 01:17:46;;;;;;;1.90;1.65;;;18.50;1.00;;;;;;4998708;28;20544;-76
2021/06/22 01:20:13;;;;;;;1.60;1.50;;;18.50;1.00;;;;;;5007814;28;20030;-76
2021/06/22 01:22:43;;;;;;;2.17;1.60;;;18.50;1.00;;;;;;5007261;28;20054;-76
2021/06/22 01:25:10;;;;;;;1.92;1.80;;;18.60;1.00;;;;;;5002248;28;20033;-76
2021/06/22 01:27:36;;;;;;;2.17;1.98;;;18.50;1.00;;;;;;5003842;28;20117;-75
2021/06/22 01:30:03;;;;;;;3.92;2.00;;;18.50;1.00;;;;;;5006836;28;20102;-75
2021/06/22 01:32:28;;;;;;;2.85;2.13;;;18.60;1.00;;;;;;5004517;28;20033;-75
2021/06/22 01:34:56;;;;;;;4.45;1.88;;;18.60;1.00;;;;;;5005775;28;20022;-76
2021/06/22 01:37:22;;;;;;;3.88;2.55;;;18.60;1.00;;;;;;5005989;28;20026;-75
2021/06/22 01:39:47;;;;;;;2.15;1.90;;;18.60;1.00;;;;;;5002372;28;20039;-75
2021/06/22 01:42:13;;;;;;;1.80;1.70;;;18.50;1.00;;;;;;5028995;28;20029;-76
2021/06/22 01:44:38;;;;;;;3.92;1.83;;;18.40;1.00;;;;;;5029336;28;20045;-76
2021/06/22 01:47:05;;;;;;;4.70;1.65;;;18.40;1.00;;;;;;5025444;28;20037;-77
2021/06/22 01:49:31;;;;;;;7.15;1.70;;;18.40;1.00;;;;;;5028236;28;20085;-76
2021/06/22 01:51:57;;;;;;;1.65;1.50;;;18.40;1.00;;;;;;5031673;28;20018;-75
2021/06/22 01:54:22;;;;;;;3.03;1.63;;;18.30;1.00;;;;;;5030917;28;20057;-75
2021/06/22 01:56:52;;;;;;;4.10;2.00;;;18.30;1.00;;;;;;5025366;28;20019;-75
2021/06/22 01:59:18;;;;;;;2.22;1.77;;;18.30;1.00;;;;;;5019559;28;20037;-76
2021/06/22 02:01:44;;;;;;;3.05;1.88;;;18.30;1.00;;;;;;5026710;28;20018;-76
2021/06/22 02:04:11;;;;;;;2.17;1.65;;;18.40;1.00;;;;;;5032734;28;20030;-77
2021/06/22 02:06:38;;;;;;;3.38;2.22;;;18.40;1.00;;;;;;5026562;28;20034;-75
2021/06/22 02:09:04;;;;;;;2.55;1.73;;;18.30;1.00;;;;;;5034896;28;20074;-75
2021/06/22 02:11:30;;;;;;;2.55;1.52;;;18.30;1.00;;;;;;5007447;28;20036;-76
2021/06/22 02:13:55;;;;;;;2.15;1.90;;;18.20;1.00;;;;;;5008242;28;20475;-76
2021/06/22 02:16:21;;;;;;;2.65;1.83;;;18.10;1.00;;;;;;5003482;28;20712;-76
2021/06/22 02:18:47;;;;;;;3.22;2.30;;;18.00;1.00;;;;;;5011476;28;20034;-76
2021/06/22 02:21:12;;;;;;;2.45;2.10;;;17.90;1.00;;;;;;5019671;28;20026;-75
2021/06/22 02:23:39;;;;;;;2.33;2.13;;;17.90;1.00;;;;;;5027529;28;20077;-76
2021/06/22 02:26:05;;;;;;;2.55;1.85;;;17.90;1.00;;;;;;5033223;28;20145;-75
2021/06/22 02:28:32;;;;;;;2.28;1.55;;;17.90;1.00;;;;;;5036132;28;20017;-76
2021/06/22 02:30:58;;;;;;;5.70;2.40;;;17.90;1.00;;;;;;5032691;28;20093;-75
2021/06/22 02:33:25;;;;;;;3.08;1.77;;;18.00;1.00;;;;;;5029400;28;20034;-75
2021/06/22 02:35:51;;;;;;;3.47;2.05;;;18.00;1.00;;;;;;5025903;28;20038;-75
2021/06/22 02:38:17;;;;;;;3.67;1.52;;;18.10;1.00;;;;;;5024474;28;20023;-75
2021/06/22 02:40:43;;;;;;;4.60;1.60;;;18.10;1.00;;;;;;5029628;28;20034;-75
2021/06/22 02:43:09;;;;;;;3.60;1.83;;;18.20;1.00;;;;;;5007457;28;20080;-75
2021/06/22 02:45:35;;;;;;;2.45;1.85;;;18.20;1.00;;;;;;5007697;28;20038;-76
2021/06/22 02:48:03;;;;;;;3.65;2.10;;;18.30;1.00;;;;;;5006849;28;20073;-75
2021/06/22 02:50:28;;;;;;;1.77;1.35;;;18.30;1.00;;;;;;5008808;28;20041;-76
2021/06/22 02:52:54;;;;;;;5.07;1.90;;;18.40;1.00;;;;;;5012067;28;20490;-77
2021/06/22 02:55:20;;;;;;;3.67;2.22;;;18.40;1.00;;;;;;5001915;28;20089;-76
2021/06/22 02:57:48;;;;;;;1.75;1.35;;;18.30;1.00;;;;;;5005026;28;20045;-76
2021/06/22 03:00:15;;;;;;;1.80;1.60;;;18.30;1.00;;;;;;5003285;28;20034;-76
2021/06/22 03:02:40;;;;;;;3.58;2.15;;;18.30;1.00;;;;;;5002044;28;20108;-76
2021/06/22 03:05:06;;;;;;;2.00;1.80;;;18.30;1.00;;;;;;5001851;28;20058;-77
2021/06/22 03:07:32;;;;;;;4.45;2.47;;;18.30;1.00;;;;;;5003354;28;20033;-76
2021/06/22 03:09:57;;;;;;;4.40;1.60;;;18.30;1.00;;;;;;5011440;28;20077;-75
2021/06/22 03:12:23;;;;;;;4.10;1.83;;;18.30;1.00;;;;;;4995082;28;20027;-76
2021/06/22 03:14:48;;;;;;;2.92;2.05;;;18.30;1.00;;;;;;5002909;28;20534;-76
2021/06/22 03:17:14;;;;;;;2.65;1.50;;;18.30;1.00;;;;;;5008925;28;20034;-76
2021/06/22 03:19:40;;;;;;;2.28;1.55;;;18.30;1.00;;;;;;5010617;28;20125;-76
2021/06/22 03:22:05;;;;;;;3.33;2.30;;;18.30;1.00;;;;;;5005616;28;20022;-76
2021/06/22 03:24:31;;;;;;;2.47;2.28;;;18.30;1.00;;;;;;5005681;28;20030;-76
2021/06/22 03:26:56;;;;;;;2.08;1.70;;;18.50;1.00;;;;;;5009415;28;20029;-76
2021/06/22 03:29:23;;;;;;;2.00;1.80;;;18.70;1.00;;;;;;4998073;28;20029;-75
2021/06/22 03:31:49;;;;;;;7.18;2.00;;;18.70;1.00;;;;;;5003871;28;20026;-75
2021/06/22 03:34:15;;;;;;;5.88;2.00;;;18.70;1.00;;;;;;4998604;28;20026;-76
2021/06/22 03:36:40;;;;;;;2.47;1.95;;;18.60;1.00;;;;;;4997049;28;20027;-76
2021/06/22 03:39:09;;;;;;;5.30;2.25;;;18.50;1.00;;;;;;5013092;28;20045;-76
2021/06/22 03:41:36;;;;;;;2.13;1.98;;;18.50;1.00;;;;;;4997510;28;20030;-76
2021/06/22 03:44:02;;;;;;;6.15;1.70;;;18.60;1.00;;;;;;5008943;28;20044;-76
2021/06/22 03:46:28;;;;;;;4.28;1.90;;;18.80;1.00;;;;;;5004954;28;20053;-75
2021/06/22 03:48:54;;;;;;;2.53;1.73;;;18.90;1.00;;;;;;5001359;28;20035;-76
2021/06/22 03:51:19;;;;;;;3.78;2.15;;;18.80;1.00;;;;;;5005780;28;20054;-76
2021/06/22 03:53:45;;;;;;;3.05;2.40;;;18.90;1.00;;;;;;5003069;28;20034;-77
2021/06/22 03:56:11;;;;;;;4.88;2.20;;;19.00;1.00;;;;;;4996825;28;20471;-76
2021/06/22 03:58:37;;;;;;;4.63;2.40;;;19.00;1.00;;;;;;5001774;28;20054;-75
2021/06/22 04:01:03;;;;;;;5.68;2.22;;;18.90;1.00;;;;;;5001314;28;20049;-75
2021/06/22 04:03:29;;;;;;;2.78;2.20;;;18.90;1.00;;;;;;4998835;28;20073;-76
2021/06/22 04:05:55;;;;;;;5.30;2.53;;;18.80;1.00;;;;;;5008007;28;20523;-75
2021/06/22 04:08:21;;;;;;;3.08;2.30;;;18.60;1.00;;;;;;5006847;28;20101;-75
2021/06/22 04:10:47;;;;;;;4.47;2.15;;;18.70;1.00;;;;;;5000445;28;20033;-76
2021/06/22 04:13:12;;;;;;;3.97;2.08;;;18.80;1.00;;;;;;5005898;28;20037;-76
2021/06/22 04:15:38;;;;;;;4.28;2.35;;;18.90;1.00;;;;;;5011335;28;20025;-76
2021/06/22 04:18:09;;;;;;;3.78;2.60;;;18.90;1.00;;;;;;4996454;28;20022;-77
2021/06/22 04:20:36;;;;;;;4.53;2.58;;;18.80;1.00;;;;;;5001178;28;20025;-76
2021/06/22 04:23:02;;;;;;;5.65;2.53;;;18.80;1.00;;;;;;4995425;28;20018;-75
2021/06/22 04:25:29;;;;;;;2.75;2.20;;;19.00;1.00;;;;;;5008711;28;20088;-77
2021/06/22 04:27:54;;;;;;;3.03;2.03;;;19.10;1.00;;;;;;5003295;28;20502;-76
2021/06/22 04:30:20;;;;;;;5.07;2.17;;;19.10;1.00;;;;;;5005130;28;20034;-75
2021/06/22 04:32:46;;;;;;;8.38;2.65;;;19.20;1.00;;;;;;5006937;28;20022;-75
2021/06/22 04:35:13;;;;;;;4.85;2.45;;;19.30;1.00;;;;;;4996682;28;20546;-75
2021/06/22 04:37:40;;;;;;;5.20;2.70;;;19.30;1.00;;;;;;5000714;28;20484;-76
2021/06/22 04:40:06;;;;;;;7.57;2.88;;;19.20;1.00;;;;;;5008101;28;20030;-76
2021/06/22 04:42:32;;;;;;;3.78;2.30;;;19.20;1.00;;;;;;5007176;28;20059;-76
2021/06/22 04:44:57;;;;;;;5.15;3.08;;;19.30;1.00;;;;;;4995918;28;20023;-76
2021/06/22 04:47:23;;;;;;;2.85;2.55;;;19.30;1.00;;;;;;5004168;28;20058;-75
2021/06/22 04:49:49;;;;;;;3.40;3.10;;;19.30;1.00;;;;;;5001386;28;20064;-76
2021/06/22 04:52:14;;;;;;;5.38;2.50;;;19.30;1.00;;;;;;5003989;28;20026;-76
2021/06/22 04:54:40;;;;;;;3.92;3.15;;;19.30;1.00;;;;;;5008255;28;20097;-75
2021/06/22 04:57:06;;;;;;;8.10;3.45;;;19.40;1.00;;;;;;4994058;28;20097;-76
2021/06/22 04:59:34;;;;;;;3.67;3.25;;;19.50;1.00;;;;;;5002025;28;20060;-75
2021/06/22 05:01:59;;;;;;;6.43;3.63;;;19.60;1.00;;;;;;5002849;28;20031;-76
2021/06/22 05:04:25;;;;;;;4.47;3.85;;;19.60;1.00;;;;;;5004500;28;20022;-76
2021/06/22 05:06:51;;;;;;;3.75;3.45;;;19.50;1.00;;;;;;5001048;28;20170;-77
2021/06/22 05:09:16;;;;;;;5.13;4.28;;;19.50;1.00;;;;;;4995101;28;20034;-77
2021/06/22 05:11:42;;;;;;;11.98;5.10;;;19.30;1.00;;;;;;5000144;28;20022;-76
2021/06/22 05:14:07;;;;;;;5.53;4.10;;;19.30;1.00;;;;;;4997314;28;20032;-76
2021/06/22 05:16:33;;;;;;;4.70;3.67;;;19.20;1.00;;;;;;5007623;28;20048;-75
2021/06/22 05:18:59;;;;;;;6.68;4.43;;;19.20;1.00;;;;;;5004259;28;20042;-75
2021/06/22 05:21:24;;;;;;;6.30;5.53;;;19.40;1.00;;;;;;4997418;28;20034;-75
2021/06/22 05:23:50;;;;;;;7.22;5.35;;;19.70;1.00;;;;;;4996353;28;20030;-76
2021/06/22 05:26:15;;;;;;;5.30;4.70;;;19.80;1.00;;;;;;4991778;28;20498;-75
2021/06/22 05:28:41;;;;;;;5.22;4.72;;;19.80;1.00;;;;;;4998857;28;20117;-76
2021/06/22 05:31:06;;;;;;;11.43;6.20;;;19.90;1.00;;;;;;5001313;28;20019;-75
2021/06/22 05:33:32;;;;;;;10.25;6.90;;;19.90;1.00;;;;;;5000289;28;20109;-76
2021/06/22 05:35:57;;;;;;;7.30;6.60;;;19.80;1.00;;;;;;5000904;28;20042;-76
2021/06/22 05:38:23;;;;;;;7.40;6.78;;;19.70;1.00;;;;;;5006272;28;20033;-76
2021/06/22 05:40:49;;;;;;;8.75;7.95;;;19.70;1.00;;;;;;4995554;28;20026;-76
2021/06/22 05:43:14;;;;;;;10.23;7.85;;;19.50;1.00;;;;;;5008027;28;20034;-75
2021/06/22 05:45:40;;;;;;;14.27;6.45;;;19.50;1.00;;;;;;5002045;28;20035;-75
2021/06/22 05:48:06;;;;;;;8.95;6.40;;;19.60;1.00;;;;;;5002806;28;20023;-75
2021/06/22 05:50:31;;;;;;;13.27;6.63;;;19.60;1.00;;;;;;5003429;28;20026;-76
2021/06/22 05:52:57;;;;;;;8.32;6.78;;;19.60;1.00;;;;;;4994740;28;20475;-76
2021/06/22 05:55:22;;;;;;;8.63;6.63;;;19.60;1.00;;;;;;5005366;28;20033;-75
2021/06/22 05:57:51;;;;;;;7.13;5.97;;;19.90;1.00;;;;;;5008300;28;20026;-76
2021/06/22 06:00:18;;;;;;;10.68;6.13;;;19.90;1.00;;;;;;4992842;28;20077;-75
2021/06/22 06:02:44;;;;;;;9.85;6.15;;;19.90;1.00;;;;;;5008243;28;20033;-75
2021/06/22 06:05:11;;;;;;;8.00;6.53;;;20.10;1.00;;;;;;5003642;28;20473;-75
2021/06/22 06:07:37;;;;;;;5.47;5.00;;;20.20;1.00;;;;;;5013488;28;20482;-76
2021/06/22 06:10:04;;;;;;;7.22;6.32;;;20.30;1.00;;;;;;4999024;28;20108;-75
2021/06/22 06:12:29;;;;;;;8.35;7.22;;;20.40;1.00;;;;;;5006862;28;20034;-77
2021/06/22 06:14:55;;;;;;;8.00;7.18;;;20.10;1.00;;;;;;5004815;28;20022;-76
2021/06/22 06:17:20;;;;;;;9.43;8.60;;;20.00;1.00;;;;;;5009340;28;20487;-75
2021/06/22 06:19:46;;;;;;;8.88;7.63;;;19.80;1.00;;;;;;5009122;28;20053;-75
2021/06/22 06:22:12;;;;;;;8.98;7.20;;;19.80;1.00;;;;;;5015267;28;20022;-77
2021/06/22 06:24:38;;;;;;;9.80;6.47;;;20.00;1.00;;;;;;5015561;28;20034;-76
2021/06/22 06:27:11;;;;;;;8.82;5.72;;;20.20;1.00;;;;;;4998518;28;20025;-76
2021/06/22 06:32:09;;;;;;;6.13;5.50;;;20.30;1.00;;;;;;5003197;28;20022;-77
2021/06/22 06:34:35;;;;;;;8.85;7.10;;;20.30;1.00;;;;;;5000510;28;20042;-76
2021/06/22 06:37:00;;;;;;;10.88;7.20;;;20.10;1.00;;;;;;5000231;28;20036;-76
2021/06/22 06:39:26;;;;;;;7.85;6.90;;;20.00;1.00;;;;;;5008163;28;20030;-75
2021/06/22 06:41:51;;;;;;;7.90;7.22;;;19.90;1.00;;;;;;4999712;28;20088;-76
2021/06/22 06:44:17;;;;;;;9.15;7.55;;;20.10;1.00;;;;;;5007335;28;20072;-76
2021/06/22 06:46:42;;;;;;;8.25;6.68;;;20.50;1.00;;;;;;5005615;28;20502;-76
2021/06/22 06:49:08;;;;;;;8.07;7.25;;;20.60;99.90;;;;;;5001545;28;20025;-75
2021/06/22 06:51:34;;;;;;;8.40;7.20;;;20.60;99.90;;;;;;5005887;28;20026;-76
2021/06/22 06:53:59;;;;;;;12.20;7.53;;;20.40;99.90;;;;;;5009585;28;20443;-75
2021/06/22 06:56:25;;;;;;;8.85;6.85;;;20.60;99.90;;;;;;5007368;28;20172;-74
2021/06/22 06:58:50;;;;;;;7.60;6.85;;;20.90;99.90;;;;;;4997443;28;20038;-76
2021/06/22 07:01:16;;;;;;;8.43;7.40;;;20.90;99.90;;;;;;5006083;28;20022;-76
2021/06/22 07:03:44;;;;;;;7.95;7.00;;;21.40;99.90;;;;;;5005346;28;20104;-75
2021/06/22 07:06:14;;;;;;;10.45;6.82;;;21.20;99.90;;;;;;4997914;28;20034;-76
2021/06/22 07:08:40;;;;;;;6.70;5.80;;;21.30;99.90;;;;;;5008162;28;20436;-79
2021/06/22 07:11:06;;;;;;;7.85;7.13;;;21.20;99.90;;;;;;5006224;28;20018;-80
2021/06/22 07:13:32;;;;;;;7.60;6.05;;;21.20;99.90;;;;;;5004702;28;20471;-78
2021/06/22 07:15:57;;;;;;;7.82;5.70;;;21.20;99.90;;;;;;5010648;28;20025;-78
2021/06/22 07:18:23;;;;;;;6.57;5.40;;;21.50;99.90;;;;;;5004018;28;20038;-79
2021/06/22 07:20:49;;;;;;;8.73;6.93;;;21.60;99.90;;;;;;5003170;28;20395;-79
2021/06/22 07:23:15;;;;;;;7.25;6.55;;;21.70;99.90;;;;;;4999667;28;20022;-79
2021/06/22 07:25:41;;;;;;;8.98;8.13;;;21.50;99.90;;;;;;5010476;28;20036;-79
2021/06/22 07:28:07;;;;;;;15.50;8.27;;;21.50;99.90;;;;;;5013087;28;20022;-79
2021/06/22 07:30:33;;;;;;;11.88;7.03;;;21.80;99.90;;;;;;4999115;28;20026;-80
2021/06/22 07:32:59;;;;;;;10.48;6.60;;;22.10;99.90;;;;;;5007015;28;20036;-79
2021/06/22 07:35:32;;;;;;;9.40;6.40;;;23.00;99.90;;;;;;4998691;28;20026;-80
2021/06/22 07:37:58;;;;;;;8.00;6.55;;;23.30;99.90;;;;;;5006645;28;20022;-79
2021/06/22 07:40:24;;;;;;;6.13;5.50;;;23.20;42.00;;;;;;5000272;28;20109;-79
2021/06/22 07:42:51;;;;;;;8.13;5.03;;;22.80;32.80;;;;;;5006030;28;20060;-78
2021/06/22 07:45:17;;;;;;;10.25;5.50;;;23.60;1.00;;;;;;5001495;28;20085;-78
2021/06/22 07:47:42;;;;;;;13.77;8.23;;;23.50;1.00;;;;;;5009397;28;20034;-78
2021/06/22 07:50:09;;;;;;;7.30;5.43;;;23.30;1.00;;;;;;5002926;28;20018;-78
2021/06/22 07:52:35;;;;;;;4.47;4.07;;;22.90;1.00;;;;;;5000987;28;20026;-78
2021/06/22 07:55:00;;;;;;;8.07;6.28;;;22.80;1.00;;;;;;4994752;28;20381;-78
2021/06/22 07:57:26;;;;;;;6.18;5.07;;;22.70;1.00;;;;;;5000939;28;20391;-78
2021/06/22 07:59:51;;;;;;;8.05;5.40;;;22.80;1.00;;;;;;4995601;28;20029;-78
2021/06/22 08:02:17;;;;;;;6.28;5.75;;;22.90;1.00;;;;;;5009398;28;20038;-78
2021/06/22 08:04:43;;;;;;;8.00;5.22;;;22.60;1.00;;;;;;5002100;28;20026;-79
2021/06/22 08:07:08;;;;;;;5.03;4.47;;;22.90;1.00;;;;;;5000233;28;20108;-79
2021/06/22 08:09:34;;;;;;;6.15;4.78;;;22.50;1.00;;;;;;5013381;28;20049;-78
2021/06/22 08:12:00;;;;;;;4.82;4.35;;;22.30;1.00;;;;;;5003248;28;20061;-78
2021/06/22 08:14:26;;;;;;;5.45;4.25;;;22.10;1.00;;;;;;4993291;28;20029;-78
2021/06/22 08:16:51;;;;;;;6.30;4.10;;;22.00;1.00;;;;;;4995663;28;20395;-78
2021/06/22 08:19:17;;;;;;;4.57;3.83;;;21.90;1.00;;;;;;5013212;28;20033;-79
2021/06/22 08:21:43;;;;;;;5.95;4.13;;;21.70;28.70;;;;;;5004374;28;20168;-78
2021/06/22 08:24:08;;;;;;;7.57;6.40;;;21.80;93.20;;;;;;5011156;28;20030;-78
2021/06/22 08:26:34;;;;;;;7.53;5.57;;;21.50;99.90;;;;;;5012017;28;20022;-79
2021/06/22 08:29:01;;;;;;;5.60;4.85;;;21.40;99.90;;;;;;4996416;28;20379;-78
2021/06/22 08:31:26;;;;;;;6.95;4.75;;;21.60;99.90;;;;;;4999141;28;20406;-78
2021/06/22 08:33:52;;;;;;;7.57;4.95;;;21.50;99.90;;;;;;4998776;28;20030;-79
2021/06/22 08:36:18;;;;;;;5.45;4.78;;;21.30;99.90;;;;;;5010369;28;20112;-77
2021/06/22 08:38:43;;;;;;;7.60;4.20;;;21.10;99.90;;;;;;5010155;28;20034;-78
2021/06/22 08:41:09;;;;;;;10.00;4.25;;;21.00;99.90;;;;;;4996611;28;20068;-78
2021/06/22 08:43:35;;;;;;;6.38;4.95;;;21.20;99.90;;;;;;5004133;28;20089;-78
2021/06/22 08:46:02;;;;;;;4.72;4.32;;;21.00;99.90;;;;;;5001460;28;20388;-77
2021/06/22 08:48:29;;;;;;;6.25;4.60;;;21.10;99.90;;;;;;4998202;28;20089;-78
2021/06/22 08:50:56;;;;;;;5.00;4.60;;;21.10;99.90;;;;;;5003537;28;20057;-78
2021/06/22 08:53:22;;;;;;;5.82;5.25;;;21.20;99.90;;;;;;5004445;28;20128;-77
2021/06/22 08:55:48;;;;;;;6.72;6.15;;;21.20;99.90;;;;;;4995600;28;20018;-78
2021/06/22 08:58:16;;;;;;;7.65;6.00;;;21.10;99.90;;;;;;5002997;28;20018;-78
2021/06/22 09:00:44;;;;;;;5.53;5.00;;;21.10;99.90;;;;;;5013025;28;20025;-78
2021/06/22 09:03:14;;;;;;;5.63;5.13;;;21.40;99.90;;;;;;4998155;28;20022;-78
2021/06/22 09:05:42;;;;;;;6.00;5.40;;;21.40;99.90;;;;;;5003758;28;20030;-77
2021/06/22 09:08:26;;;;;;;6.18;5.68;;;21.30;99.90;;;;;;5000365;28;20046;-77
2021/06/22 09:11:14;;;;;;;7.47;5.35;;;21.30;99.90;;;;;;5003055;28;20025;-77
2021/06/22 09:13:42;;;;;;;6.85;5.03;;;21.20;99.90;;;;;;5007722;28;20018;-77
2021/06/22 09:16:14;;;;;;;6.30;4.88;;;21.30;99.90;;;;;;5001648;28;20102;-78
2021/06/22 09:18:44;;;;;;;6.47;5.88;;;21.30;99.90;;;;;;5002959;28;20041;-78
2021/06/22 09:21:22;;;;;;;6.30;5.70;;;21.70;99.90;;;;;;4999499;28;20488;-79
2021/06/22 09:23:56;;;;;;;8.77;7.05;;;21.80;99.90;;;;;;5006179;28;20041;-79
2021/06/22 09:26:30;;;;;;;7.60;7.00;;;21.50;99.90;;;;;;5004157;28;20049;-77
2021/06/22 09:29:10;;;;;;;10.95;7.72;;;21.40;99.90;;;;;;5077697;22;20049;-73
2021/06/22 09:31:36;;;;;;;8.63;7.78;;;21.20;99.90;;;;;;5069111;28;20092;-73
2021/06/22 09:34:02;;;;;;;9.43;8.63;;;21.20;99.90;;;;;;5071857;28;20533;-73
2021/06/22 09:36:30;;;;;;;8.88;7.07;;;20.90;99.90;;;;;;5069932;28;20158;-74
2021/06/22 09:39:07;;;;;;;9.73;7.53;;;20.90;99.90;;;;;;5064297;28;20029;-73
2021/06/22 09:41:43;;;;;;;12.32;8.02;;;20.90;99.90;;;;;;5076055;28;20031;-74
2021/06/22 09:44:18;;;;;;;9.43;7.55;;;21.10;99.90;;;;;;5071912;28;20111;-74
2021/06/22 09:46:53;;;;;;;9.20;7.95;;;21.10;99.90;;;;;;5064758;28;20035;-74
2021/06/22 09:49:25;;;;;;;7.90;7.25;;;21.00;99.90;;;;;;5071576;28;20077;-73
2021/06/22 09:54:24;;;;;;;9.50;8.00;;;21.00;99.90;;;;;;5076326;28;20119;-73
2021/06/22 09:57:12;;;;;;;9.52;7.15;;;21.30;99.90;;;;;;5073804;28;20099;-75
2021/06/22 09:59:54;;;;;;;6.70;6.10;;;21.80;99.90;;;;;;5076893;28;20154;-74
2021/06/22 10:02:27;;;;;;;8.43;7.63;;;21.80;99.90;;;;;;5058673;28;20025;-74
2021/06/22 10:04:58;;;;;;;7.32;6.72;;;21.60;99.90;;;;;;5072496;28;20025;-76
2021/06/22 10:07:27;;;;;;;7.10;6.45;;;21.30;99.90;;;;;;5058426;28;20028;-74
2021/06/22 10:10:03;;;;;;;7.45;6.70;;;21.10;99.90;;;;;;5072262;28;20040;-73
2021/06/22 10:12:31;;;;;;;8.13;6.72;;;21.20;99.90;;;;;;5071029;28;20025;-73
2021/06/22 10:15:03;;;;;;;9.98;7.03;;;21.20;99.90;;;;;;5075853;28;20020;-74
2021/06/22 10:17:30;;;;;;;6.55;5.85;;;21.00;99.90;;;;;;5074154;28;20035;-73
2021/06/22 10:19:57;;;;;;;8.50;6.78;;;21.40;99.90;;;;;;5092463;28;20020;-72
2021/06/22 10:22:27;;;;;;;8.02;5.65;;;21.90;99.90;;;;;;5078870;28;20078;-73
2021/06/22 10:24:54;;;;;;;6.00;5.13;;;21.70;99.90;;;;;;5076309;28;20032;-74
2021/06/22 10:27:21;;;;;;;6.22;5.72;;;22.00;99.90;;;;;;5073935;28;20028;-74
2021/06/22 10:29:52;;;;;;;7.25;6.10;;;21.90;99.90;;;;;;5074517;28;20024;-73
2021/06/22 10:32:20;;;;;;;6.13;5.63;;;22.20;99.90;;;;;;5073468;28;20032;-74
2021/06/22 10:34:50;;;;;;;6.55;5.68;;;22.40;99.90;;;;;;5056969;28;20048;-73
2021/06/22 10:37:29;;;;;;;5.10;4.50;;;22.10;99.90;;;;;;5072558;28;20108;-74
2021/06/22 10:40:15;;;;;;;6.10;4.90;;;21.70;99.90;;;;;;5063950;28;20029;-75
2021/06/22 10:42:44;;;;;;;6.60;4.75;;;21.50;99.90;;;;;;5069456;28;20024;-75
2021/06/22 10:45:11;;;;;;;4.68;4.38;;;21.20;99.90;;;;;;5073315;28;20033;-74
2021/06/22 10:47:39;;;;;;;5.70;4.57;;;21.20;99.90;;;;;;5074149;28;20028;-76
2021/06/22 10:50:12;;;;;;;4.63;4.15;;;21.20;99.90;;;;;;5068776;28;20023;-75
2021/06/22 10:52:41;;;;;;;4.60;4.20;;;21.40;99.90;;;;;;5071905;28;20113;-74
2021/06/22 10:55:22;;;;;;;4.88;3.20;;;21.20;99.90;;;;;;5070094;28;20021;-76
2021/06/22 10:57:59;;;;;;;4.03;3.72;;;21.10;99.90;;;;;;5073448;28;20031;-73
2021/06/22 11:00:39;;;;;;;4.13;3.72;;;21.10;99.90;;;;;;5075269;28;20028;-76
2021/06/22 11:03:09;;;;;;;4.13;3.80;;;21.10;99.90;;;;;;5074689;28;20029;-75
2021/06/22 11:05:44;;;;;;;5.97;5.43;;;20.70;99.90;;;;;;5076696;28;20036;-74
2021/06/22 11:08:13;;;;;;;6.22;4.43;;;20.60;99.90;;;;;;5072968;28;20062;-74
2021/06/22 11:10:53;;;;;;;4.32;3.92;;;20.70;99.90;;;;;;5076135;28;20539;-75
2021/06/22 11:13:46;;;;;;;7.00;5.10;;;20.90;99.90;;;;;;5074189;28;20020;-74
2021/06/22 11:16:18;;;;;;;8.43;4.97;;;20.70;99.90;;;;;;5082025;28;20033;-72
2021/06/22 11:21:42;;;;;;;6.35;5.32;;;20.50;99.90;;;;;;5081004;28;20056;-74
2021/06/22 11:24:15;;;;;;;6.40;5.90;;;20.30;99.90;;;;;;5077533;28;20057;-73
2021/06/22 11:26:41;;;;;;;6.03;5.22;;;20.30;99.90;;;;;;5079547;28;20058;-75
2021/06/22 11:29:11;;;;;;;8.18;6.13;;;20.20;99.90;;;;;;5076949;28;20490;-75
2021/06/22 11:31:44;;;;;;;8.57;5.70;;;20.10;99.90;;;;;;5083286;28;20044;-74
2021/06/22 11:34:12;;;;;;;6.22;5.63;;;20.00;99.90;;;;;;5071687;28;20027;-75
2021/06/22 11:37:09;;;;;;;6.40;5.80;;;20.00;99.90;;;;;;5075483;28;20055;-74
2021/06/22 11:39:35;;;;;;;6.47;5.88;;;20.00;99.90;;;;;;5071985;28;20383;-74
2021/06/22 11:42:07;;;;;;;6.20;5.60;;;19.90;99.90;;;;;;5073938;28;20024;-75
2021/06/22 11:44:36;;;;;;;5.85;4.90;;;20.10;99.90;;;;;;5073024;28;20021;-74
2021/06/22 11:47:21;;;;;;;5.65;5.15;;;19.80;99.90;;;;;;5071081;28;20021;-74
2021/06/22 11:49:48;;;;;;;8.57;7.78;;;19.70;99.90;;;;;;5068338;28;20029;-75
2021/06/22 11:52:15;;;;;;;8.52;6.93;;;19.70;99.90;;;;;;5071271;28;20068;-74
2021/06/22 11:54:47;;;;;;;7.75;6.13;;;19.80;99.90;;;;;;5075639;28;20040;-73
2021/06/22 11:57:26;;;;;;;8.40;5.70;;;19.90;99.90;;;;;;5075073;28;20087;-73
2021/06/22 11:59:53;;;;;;;5.78;4.25;;;19.90;99.90;;;;;;5071941;28;20489;-73
2021/06/22 12:02:19;;;;;;;7.28;4.82;;;19.80;99.90;;;;;;5064893;28;20108;-75
2021/06/22 12:04:45;;;;;;;6.15;4.93;;;19.80;99.90;;;;;;5072402;28;20032;-74
2021/06/22 12:07:12;;;;;;;5.15;4.68;;;19.70;99.90;;;;;;5090569;28;20040;-74
2021/06/22 12:09:45;;;;;;;8.25;5.78;;;19.70;99.90;;;;;;5073510;28;20028;-75
2021/06/22 12:12:10;;;;;;;7.90;4.90;;;19.60;99.90;;;;;;5072002;28;20513;-74
2021/06/22 12:14:44;;;;;;;7.15;4.80;;;19.60;99.90;;;;;;5072081;28;20033;-75
2021/06/22 12:17:18;;;;;;;5.00;4.47;;;19.60;99.90;;;;;;5065821;28;20016;-74
2021/06/22 12:19:45;;;;;;;5.18;4.40;;;19.60;99.90;;;;;;5073537;28;20013;-75
2021/06/22 12:22:13;;;;;;;6.07;4.72;;;19.50;99.90;;;;;;5078180;28;20024;-77
2021/06/22 12:24:41;;;;;;;4.43;3.88;;;19.60;99.90;;;;;;5071275;28;20025;-76
2021/06/22 12:27:07;;;;;;;6.43;5.13;;;19.50;99.90;;;;;;5070196;28;20048;-77
2021/06/22 12:29:33;;;;;;;5.88;5.32;;;19.20;99.90;;;;;;5069957;28;20031;-77
2021/06/22 12:32:11;;;;;;;6.65;5.30;;;19.20;99.90;;;;;;5070354;28;20032;-76
2021/06/22 12:34:39;;;;;;;4.65;3.60;;;19.10;99.90;;;;;;5073788;28;20036;-76
2021/06/22 12:37:17;;;;;;;5.45;4.28;;;19.00;99.90;;;;;;5064857;28;20048;-76
2021/06/22 12:39:43;;;;;;;5.13;4.35;;;18.90;99.90;;;;;;5064502;28;20107;-75
2021/06/22 12:42:11;;;;;;;4.65;4.20;;;18.90;1.00;;;;;;5065371;28;20162;-74
2021/06/22 12:44:38;;;;;;;7.65;4.00;;;18.80;1.00;;;;;;5067557;28;20024;-76
2021/06/22 12:47:08;;;;;;;4.80;4.30;;;18.80;1.00;;;;;;5077948;28;20035;-76
2021/06/22 12:49:37;;;;;;;4.90;4.38;;;18.70;1.00;;;;;;5075573;28;20422;-76
2021/06/22 12:52:06;;;;;;;5.85;4.80;;;18.70;1.00;;;;;;5051556;28;20074;-76
2021/06/22 12:54:37;;;;;;;8.27;5.78;;;18.50;1.00;;;;;;5073289;28;20020;-76
2021/06/22 12:57:06;;;;;;;6.97;5.93;;;18.30;1.00;;;;;;5080795;28;20051;-74
2021/06/22 12:59:46;;;;;;;6.78;5.57;;;18.20;1.00;;;;;;5069086;28;20385;-73
2021/06/22 13:02:12;;;;;;;5.55;4.97;;;18.40;1.00;;;;;;5084416;28;20055;-74
2021/06/22 13:04:48;;;;;;;7.35;5.13;;;18.40;1.00;;;;;;5060499;28;20029;-75